sensor_id;sensor_type;location;lat;lon;timestamp;pressure;altitude;pressure_sealevel;temperature;humidity
21956;BME280;11142;49.930;8.606;2023-05-17T00:02:08;100654.75;;;9.46;100.00
21956;BME280;11142;49.930;8.606;2023-05-17T00:04:36;100649.94;;;9.55;100.00
21956;BME280;11142;49.930;8.606;2023-05-17T00:07:04;100655.75;;;9.60;100.00
21956;BME280;11142;49.930;8.606;2023-05-17T00:09:32;100657.50;;;9.60;100.00
21956;BME280;11142;49.930;8.606;2023-05-17T00:12:00;100656.56;;;9.61;100.00
21956;BME280;11142;49.930;8.606;2023-05-17T00:14:28;100654.81;;;9.61;100.00
21956;BME280;11142;49.930;8.606;2023-05-17T00:16:56;100651.69;;;9.55;100.00
21956;BME280;11142;49.930;8.606;2023-05-17T00:19:26;100658.63;;;9.54;100.00
21956;BME280;11142;49.930;8.606;2023-05-17T00:21:54;100655.53;;;9.48;100.00
21956;BME280;11142;49.930;8.606;2023-05-17T00:24:23;100666.53;;;9.51;100.00
21956;BME280;11142;49.930;8.606;2023-05-17T00:26:52;100666.53;;;9.51;100.00
21956;BME280;11142;49.930;8.606;2023-05-17T00:29:20;100660.56;;;9.51;100.00
21956;BME280;11142;49.930;8.606;2023-05-17T00:31:47;100663.31;;;9.48;100.00
21956;BME280;11142;49.930;8.606;2023-05-17T00:34:15;100662.97;;;9.37;100.00
21956;BME280;11142;49.930;8.606;2023-05-17T00:36:47;100658.56;;;9.22;100.00
21956;BME280;11142;49.930;8.606;2023-05-17T00:39:15;100657.47;;;9.08;100.00
21956;BME280;11142;49.930;8.606;2023-05-17T00:41:43;100655.53;;;8.95;100.00
21956;BME280;11142;49.930;8.606;2023-05-17T00:44:11;100659.69;;;8.80;100.00
21956;BME280;11142;49.930;8.606;2023-05-17T00:46:41;100657.59;;;8.70;100.00
21956;BME280;11142;49.930;8.606;2023-05-17T00:49:08;100655.16;;;8.67;100.00
21956;BME280;11142;49.930;8.606;2023-05-17T00:51:36;100657.31;;;8.57;100.00
21956;BME280;11142;49.930;8.606;2023-05-17T00:54:06;100662.91;;;8.48;100.00
21956;BME280;11142;49.930;8.606;2023-05-17T00:56:34;100657.31;;;8.38;100.00
21956;BME280;11142;49.930;8.606;2023-05-17T00:59:03;100659.34;;;8.32;100.00
21956;BME280;11142;49.930;8.606;2023-05-17T01:01:33;100663.22;;;8.22;100.00
21956;BME280;11142;49.930;8.606;2023-05-17T01:04:02;100657.81;;;8.08;100.00
21956;BME280;11142;49.930;8.606;2023-05-17T01:06:32;100656.50;;;7.99;100.00
21956;BME280;11142;49.930;8.606;2023-05-17T01:09:00;100661.00;;;7.94;100.00
21956;BME280;11142;49.930;8.606;2023-05-17T01:11:38;100655.22;;;7.89;100.00
21956;BME280;11142;49.930;8.606;2023-05-17T01:14:11;100654.50;;;7.85;100.00
21956;BME280;11142;49.930;8.606;2023-05-17T01:16:56;100654.81;;;7.78;100.00
21956;BME280;11142;49.930;8.606;2023-05-17T01:19:39;100657.41;;;7.78;100.00
21956;BME280;11142;49.930;8.606;2023-05-17T01:22:14;100655.22;;;7.69;100.00
21956;BME280;11142;49.930;8.606;2023-05-17T01:24:59;100661.28;;;7.68;100.00
21956;BME280;11142;49.930;8.606;2023-05-17T01:27:32;100656.63;;;7.76;100.00
21956;BME280;11142;49.930;8.606;2023-05-17T01:30:07;100665.41;;;7.92;100.00
21956;BME280;11142;49.930;8.606;2023-05-17T01:32:39;100672.41;;;7.70;100.00
21956;BME280;11142;49.930;8.606;2023-05-17T01:35:10;100668.19;;;7.67;100.00
21956;BME280;11142;49.930;8.606;2023-05-17T01:37:40;100677.94;;;7.81;100.00
21956;BME280;11142;49.930;8.606;2023-05-17T01:40:13;100674.81;;;8.13;100.00
21956;BME280;11142;49.930;8.606;2023-05-17T01:42:50;100672.06;;;8.36;100.00
21956;BME280;11142;49.930;8.606;2023-05-17T01:45:29;100682.28;;;8.39;100.00
21956;BME280;11142;49.930;8.606;2023-05-17T01:48:08;100683.44;;;8.12;100.00
21956;BME280;11142;49.930;8.606;2023-05-17T01:50:47;100684.69;;;7.83;100.00
21956;BME280;11142;49.930;8.606;2023-05-17T01:53:21;100675.81;;;7.50;100.00
21956;BME280;11142;49.930;8.606;2023-05-17T01:55:56;100678.16;;;7.34;100.00
21956;BME280;11142;49.930;8.606;2023-05-17T01:58:29;100675.72;;;7.52;100.00
21956;BME280;11142;49.930;8.606;2023-05-17T02:01:00;100689.41;;;7.74;100.00
21956;BME280;11142;49.930;8.606;2023-05-17T02:03:33;100689.88;;;7.83;100.00
21956;BME280;11142;49.930;8.606;2023-05-17T02:06:16;100690.53;;;7.88;100.00
21956;BME280;11142;49.930;8.606;2023-05-17T02:09:02;100686.25;;;7.87;100.00
21956;BME280;11142;49.930;8.606;2023-05-17T02:11:34;100688.41;;;7.78;100.00
21956;BME280;11142;49.930;8.606;2023-05-17T02:14:27;100693.22;;;7.65;100.00
21956;BME280;11142;49.930;8.606;2023-05-17T02:17:03;100696.28;;;7.55;100.00
21956;BME280;11142;49.930;8.606;2023-05-17T02:19:51;100693.69;;;7.55;100.00
21956;BME280;11142;49.930;8.606;2023-05-17T02:22:31;100693.03;;;7.49;100.00
21956;BME280;11142;49.930;8.606;2023-05-17T02:25:18;100697.69;;;7.41;100.00
21956;BME280;11142;49.930;8.606;2023-05-17T02:27:52;100693.72;;;7.33;100.00
21956;BME280;11142;49.930;8.606;2023-05-17T02:30:28;100701.66;;;7.28;100.00
21956;BME280;11142;49.930;8.606;2023-05-17T02:33:02;100694.88;;;7.04;100.00
21956;BME280;11142;49.930;8.606;2023-05-17T02:35:31;100689.69;;;6.82;100.00
21956;BME280;11142;49.930;8.606;2023-05-17T02:38:13;100700.09;;;6.81;100.00
21956;BME280;11142;49.930;8.606;2023-05-17T02:40:48;100694.00;;;6.82;100.00
21956;BME280;11142;49.930;8.606;2023-05-17T02:43:16;100698.84;;;6.91;100.00
21956;BME280;11142;49.930;8.606;2023-05-17T02:45:51;100705.13;;;7.06;100.00
21956;BME280;11142;49.930;8.606;2023-05-17T02:48:20;100704.72;;;7.16;100.00
21956;BME280;11142;49.930;8.606;2023-05-17T02:50:52;100702.06;;;7.18;100.00
21956;BME280;11142;49.930;8.606;2023-05-17T02:53:23;100708.38;;;7.11;100.00
21956;BME280;11142;49.930;8.606;2023-05-17T02:56:01;100710.31;;;7.06;100.00
21956;BME280;11142;49.930;8.606;2023-05-17T02:58:29;100712.94;;;7.04;100.00
21956;BME280;11142;49.930;8.606;2023-05-17T03:01:03;100710.34;;;7.04;100.00
21956;BME280;11142;49.930;8.606;2023-05-17T03:03:33;100715.34;;;7.09;100.00
21956;BME280;11142;49.930;8.606;2023-05-17T03:06:05;100720.63;;;7.06;100.00
21956;BME280;11142;49.930;8.606;2023-05-17T03:08:33;100718.44;;;6.95;100.00
21956;BME280;11142;49.930;8.606;2023-05-17T03:11:02;100721.22;;;6.90;100.00
21956;BME280;11142;49.930;8.606;2023-05-17T03:13:33;100722.88;;;6.91;100.00
21956;BME280;11142;49.930;8.606;2023-05-17T03:16:12;100732.19;;;6.95;100.00
21956;BME280;11142;49.930;8.606;2023-05-17T03:18:41;100720.84;;;6.78;100.00
21956;BME280;11142;49.930;8.606;2023-05-17T03:21:26;100726.44;;;6.43;100.00
21956;BME280;11142;49.930;8.606;2023-05-17T03:24:02;100720.50;;;6.17;100.00
21956;BME280;11142;49.930;8.606;2023-05-17T03:26:36;100726.59;;;6.15;100.00
21956;BME280;11142;49.930;8.606;2023-05-17T03:29:10;100726.88;;;6.54;100.00
21956;BME280;11142;49.930;8.606;2023-05-17T03:31:43;100729.22;;;6.83;100.00
21956;BME280;11142;49.930;8.606;2023-05-17T03:34:15;100734.16;;;6.89;100.00
21956;BME280;11142;49.930;8.606;2023-05-17T03:36:59;100741.34;;;6.81;100.00
21956;BME280;11142;49.930;8.606;2023-05-17T03:39:29;100747.63;;;6.74;100.00
21956;BME280;11142;49.930;8.606;2023-05-17T03:41:57;100751.78;;;6.78;100.00
21956;BME280;11142;49.930;8.606;2023-05-17T03:44:30;100747.16;;;6.86;100.00
21956;BME280;11142;49.930;8.606;2023-05-17T03:47:09;100746.97;;;7.14;100.00
21956;BME280;11142;49.930;8.606;2023-05-17T03:49:47;100740.28;;;7.52;100.00
21956;BME280;11142;49.930;8.606;2023-05-17T03:52:17;100748.34;;;7.86;100.00
21956;BME280;11142;49.930;8.606;2023-05-17T03:55:15;100755.47;;;8.21;100.00
21956;BME280;11142;49.930;8.606;2023-05-17T03:57:54;100755.25;;;8.46;100.00
21956;BME280;11142;49.930;8.606;2023-05-17T04:00:29;100761.56;;;8.59;100.00
21956;BME280;11142;49.930;8.606;2023-05-17T04:03:05;100766.25;;;8.70;100.00
21956;BME280;11142;49.930;8.606;2023-05-17T04:05:39;100761.91;;;8.70;100.00
21956;BME280;11142;49.930;8.606;2023-05-17T04:08:11;100762.28;;;9.00;100.00
21956;BME280;11142;49.930;8.606;2023-05-17T04:10:41;100762.97;;;9.22;100.00
21956;BME280;11142;49.930;8.606;2023-05-17T04:13:14;100766.94;;;9.29;100.00
21956;BME280;11142;49.930;8.606;2023-05-17T04:15:44;100766.66;;;9.35;100.00
21956;BME280;11142;49.930;8.606;2023-05-17T04:18:20;100764.25;;;9.49;100.00
21956;BME280;11142;49.930;8.606;2023-05-17T04:21:04;100773.16;;;9.61;100.00
21956;BME280;11142;49.930;8.606;2023-05-17T04:23:41;100774.94;;;9.78;100.00
21956;BME280;11142;49.930;8.606;2023-05-17T04:26:20;100773.97;;;9.97;100.00
21956;BME280;11142;49.930;8.606;2023-05-17T04:28:55;100780.47;;;10.23;100.00
21956;BME280;11142;49.930;8.606;2023-05-17T04:31:24;100777.53;;;10.46;100.00
21956;BME280;11142;49.930;8.606;2023-05-17T04:34:08;100789.28;;;10.69;100.00
21956;BME280;11142;49.930;8.606;2023-05-17T04:36:41;100794.56;;;10.68;100.00
21956;BME280;11142;49.930;8.606;2023-05-17T04:39:37;100798.94;;;10.67;100.00
21956;BME280;11142;49.930;8.606;2023-05-17T04:42:25;100801.06;;;10.92;100.00
21956;BME280;11142;49.930;8.606;2023-05-17T04:45:05;100803.50;;;11.26;100.00
21956;BME280;11142;49.930;8.606;2023-05-17T04:47:34;100801.56;;;11.61;100.00
21956;BME280;11142;49.930;8.606;2023-05-17T04:50:06;100801.44;;;11.94;100.00
21956;BME280;11142;49.930;8.606;2023-05-17T04:52:38;100809.69;;;12.16;100.00
21956;BME280;11142;49.930;8.606;2023-05-17T04:55:10;100814.56;;;12.50;100.00
21956;BME280;11142;49.930;8.606;2023-05-17T04:58:25;100827.50;;;12.94;100.00
21956;BME280;11142;49.930;8.606;2023-05-17T05:01:56;100833.28;;;13.27;100.00
21956;BME280;11142;49.930;8.606;2023-05-17T05:04:31;100835.09;;;13.54;100.00
21956;BME280;11142;49.930;8.606;2023-05-17T05:07:08;100839.38;;;13.81;100.00
21956;BME280;11142;49.930;8.606;2023-05-17T05:10:22;100837.09;;;14.29;99.45
21956;BME280;11142;49.930;8.606;2023-05-17T05:14:02;100846.22;;;14.36;94.51
21956;BME280;11142;49.930;8.606;2023-05-17T05:17:36;100854.28;;;14.58;89.79
21956;BME280;11142;49.930;8.606;2023-05-17T05:20:46;100858.22;;;15.02;88.22
21956;BME280;11142;49.930;8.606;2023-05-17T05:23:56;100863.56;;;14.87;83.19
21956;BME280;11142;49.930;8.606;2023-05-17T05:27:18;100865.34;;;14.10;92.31
21956;BME280;11142;49.930;8.606;2023-05-17T05:30:28;100869.34;;;14.28;89.23
21956;BME280;11142;49.930;8.606;2023-05-17T05:33:54;100870.59;;;14.74;83.78
21956;BME280;11142;49.930;8.606;2023-05-17T05:37:10;100873.03;;;15.26;83.32
21956;BME280;11142;49.930;8.606;2023-05-17T05:40:38;100880.94;;;15.63;79.92
21956;BME280;11142;49.930;8.606;2023-05-17T05:44:08;100879.06;;;15.88;78.48
21956;BME280;11142;49.930;8.606;2023-05-17T05:47:39;100876.81;;;16.19;72.44
21956;BME280;11142;49.930;8.606;2023-05-17T05:51:06;100879.63;;;16.51;68.96
21956;BME280;11142;49.930;8.606;2023-05-17T05:54:13;100883.31;;;14.92;81.14
21956;BME280;11142;49.930;8.606;2023-05-17T05:57:14;100890.22;;;15.18;78.12
21956;BME280;11142;49.930;8.606;2023-05-17T06:00:16;100890.66;;;14.86;82.18
21956;BME280;11142;49.930;8.606;2023-05-17T06:03:45;100885.91;;;14.14;88.29
21956;BME280;11142;49.930;8.606;2023-05-17T06:07:03;100892.56;;;14.06;92.72
21956;BME280;11142;49.930;8.606;2023-05-17T06:10:11;100902.22;;;14.45;90.85
21956;BME280;11142;49.930;8.606;2023-05-17T06:21:08;100914.69;;;12.15;100.00
21956;BME280;11142;49.930;8.606;2023-05-17T06:24:40;100912.94;;;12.00;100.00
21956;BME280;11142;49.930;8.606;2023-05-17T06:27:48;100914.44;;;12.93;100.00
21956;BME280;11142;49.930;8.606;2023-05-17T06:31:02;100925.34;;;13.28;100.00
21956;BME280;11142;49.930;8.606;2023-05-17T06:34:25;100924.50;;;14.63;88.75
21956;BME280;11142;49.930;8.606;2023-05-17T06:37:49;100930.41;;;14.40;92.84
21956;BME280;11142;49.930;8.606;2023-05-17T06:41:10;100931.84;;;14.96;89.53
21956;BME280;11142;49.930;8.606;2023-05-17T06:44:24;100927.53;;;14.30;93.48
21956;BME280;11142;49.930;8.606;2023-05-17T06:47:39;100931.44;;;12.99;100.00
21956;BME280;11142;49.930;8.606;2023-05-17T06:50:50;100934.03;;;12.85;100.00
21956;BME280;11142;49.930;8.606;2023-05-17T06:54:07;100935.78;;;13.83;100.00
21956;BME280;11142;49.930;8.606;2023-05-17T06:57:34;100950.31;;;15.43;84.61
21956;BME280;11142;49.930;8.606;2023-05-17T07:01:04;100948.41;;;15.70;77.11
21956;BME280;11142;49.930;8.606;2023-05-17T07:04:11;100947.63;;;14.15;89.30
21956;BME280;11142;49.930;8.606;2023-05-17T07:07:03;100941.53;;;14.94;85.06
21956;BME280;11142;49.930;8.606;2023-05-17T07:14:14;100955.22;;;13.37;100.00
21956;BME280;11142;49.930;8.606;2023-05-17T07:17:40;100958.13;;;13.60;97.04
21956;BME280;11142;49.930;8.606;2023-05-17T07:20:59;100961.28;;;14.06;91.40
21956;BME280;11142;49.930;8.606;2023-05-17T07:23:55;100962.72;;;13.83;93.12
21956;BME280;11142;49.930;8.606;2023-05-17T07:27:03;100956.63;;;13.97;89.66
21956;BME280;11142;49.930;8.606;2023-05-17T07:30:33;100955.84;;;14.09;89.33
21956;BME280;11142;49.930;8.606;2023-05-17T07:34:29;100957.09;;;13.49;92.70
21956;BME280;11142;49.930;8.606;2023-05-17T07:38:01;100954.31;;;15.11;83.11
21956;BME280;11142;49.930;8.606;2023-05-17T07:41:09;100950.78;;;16.33;73.22
21956;BME280;11142;49.930;8.606;2023-05-17T07:44:35;100953.06;;;17.19;63.84
21956;BME280;11142;49.930;8.606;2023-05-17T07:47:46;100956.06;;;18.24;59.71
21956;BME280;11142;49.930;8.606;2023-05-17T07:51:16;100950.31;;;17.87;56.90
21956;BME280;11142;49.930;8.606;2023-05-17T07:54:50;100954.78;;;18.50;55.29
21956;BME280;11142;49.930;8.606;2023-05-17T07:58:00;100954.97;;;19.20;52.68
21956;BME280;11142;49.930;8.606;2023-05-17T08:01:25;100957.06;;;18.96;48.11
21956;BME280;11142;49.930;8.606;2023-05-17T08:08:38;100949.56;;;19.42;50.58
21956;BME280;11142;49.930;8.606;2023-05-17T08:12:05;100948.25;;;18.65;52.46
21956;BME280;11142;49.930;8.606;2023-05-17T08:15:33;100948.16;;;18.67;53.53
21956;BME280;11142;49.930;8.606;2023-05-17T08:19:04;100941.53;;;18.51;51.57
21956;BME280;11142;49.930;8.606;2023-05-17T08:21:56;100944.81;;;18.85;53.38
21956;BME280;11142;49.930;8.606;2023-05-17T08:25:37;100942.97;;;18.44;50.77
21956;BME280;11142;49.930;8.606;2023-05-17T08:29:19;100944.97;;;17.44;56.67
21956;BME280;11142;49.930;8.606;2023-05-17T08:32:48;100946.53;;;18.12;53.92
21956;BME280;11142;49.930;8.606;2023-05-17T08:36:26;100942.94;;;17.14;56.69
21956;BME280;11142;49.930;8.606;2023-05-17T08:39:23;100941.84;;;15.65;66.20
21956;BME280;11142;49.930;8.606;2023-05-17T08:42:35;100945.22;;;15.90;65.80
21956;BME280;11142;49.930;8.606;2023-05-17T08:45:57;100936.69;;;18.04;56.39
21956;BME280;11142;49.930;8.606;2023-05-17T08:49:29;100940.81;;;19.12;50.03
21956;BME280;11142;49.930;8.606;2023-05-17T08:53:01;100942.13;;;19.57;48.71
21956;BME280;11142;49.930;8.606;2023-05-17T08:56:39;100937.25;;;16.16;54.87
21956;BME280;11142;49.930;8.606;2023-05-17T09:00:11;100941.44;;;16.42;57.03
21956;BME280;11142;49.930;8.606;2023-05-17T09:03:22;100932.84;;;16.75;54.06
21956;BME280;11142;49.930;8.606;2023-05-17T09:06:22;100925.66;;;16.55;51.37
21956;BME280;11142;49.930;8.606;2023-05-17T09:09:23;100924.78;;;16.89;48.66
21956;BME280;11142;49.930;8.606;2023-05-17T09:12:27;100926.69;;;16.87;50.25
21956;BME280;11142;49.930;8.606;2023-05-17T09:16:12;100938.38;;;19.50;43.93
21956;BME280;11142;49.930;8.606;2023-05-17T09:19:42;100934.38;;;19.55;43.16
21956;BME280;11142;49.930;8.606;2023-05-17T09:23:13;100941.44;;;19.55;42.96
21956;BME280;11142;49.930;8.606;2023-05-17T09:26:19;100936.50;;;18.48;45.34
21956;BME280;11142;49.930;8.606;2023-05-17T09:29:22;100934.22;;;17.36;50.25
21956;BME280;11142;49.930;8.606;2023-05-17T09:32:24;100929.66;;;17.93;48.80
21956;BME280;11142;49.930;8.606;2023-05-17T09:35:50;100937.38;;;18.38;46.86
21956;BME280;11142;49.930;8.606;2023-05-17T09:38:24;100932.63;;;18.64;46.66
21956;BME280;11142;49.930;8.606;2023-05-17T09:41:41;100939.47;;;17.36;49.06
21956;BME280;11142;49.930;8.606;2023-05-17T09:45:03;100934.84;;;18.16;47.94
21956;BME280;11142;49.930;8.606;2023-05-17T09:48:16;100934.06;;;18.36;47.85
21956;BME280;11142;49.930;8.606;2023-05-17T09:52:05;100938.09;;;19.23;44.68
21956;BME280;11142;49.930;8.606;2023-05-17T09:54:51;100936.63;;;17.39;47.60
21956;BME280;11142;49.930;8.606;2023-05-17T09:58:05;100930.84;;;18.64;48.54
21956;BME280;11142;49.930;8.606;2023-05-17T10:01:16;100927.97;;;16.81;48.16
21956;BME280;11142;49.930;8.606;2023-05-17T10:04:49;100926.63;;;17.44;47.43
21956;BME280;11142;49.930;8.606;2023-05-17T10:08:12;100931.69;;;18.33;43.61
21956;BME280;11142;49.930;8.606;2023-05-17T10:11:33;100937.53;;;17.93;45.66
21956;BME280;11142;49.930;8.606;2023-05-17T10:14:57;100924.81;;;17.67;46.60
21956;BME280;11142;49.930;8.606;2023-05-17T10:18:07;100921.66;;;18.27;43.20
21956;BME280;11142;49.930;8.606;2023-05-17T10:21:23;100928.44;;;19.33;40.98
21956;BME280;11142;49.930;8.606;2023-05-17T10:24:44;100928.00;;;19.28;40.46
21956;BME280;11142;49.930;8.606;2023-05-17T10:27:41;100927.28;;;19.26;39.89
21956;BME280;11142;49.930;8.606;2023-05-17T10:30:28;100916.47;;;21.12;37.41
21956;BME280;11142;49.930;8.606;2023-05-17T10:33:36;100913.44;;;21.17;36.65
21956;BME280;11142;49.930;8.606;2023-05-17T10:36:37;100912.84;;;21.78;36.70
21956;BME280;11142;49.930;8.606;2023-05-17T10:39:52;100905.63;;;21.52;36.95
21956;BME280;11142;49.930;8.606;2023-05-17T10:43:02;100900.88;;;18.55;40.22
21956;BME280;11142;49.930;8.606;2023-05-17T10:46:01;100903.81;;;20.60;35.81
21956;BME280;11142;49.930;8.606;2023-05-17T10:49:26;100903.91;;;18.51;38.78
21956;BME280;11142;49.930;8.606;2023-05-17T10:52:31;100912.66;;;17.10;43.25
21956;BME280;11142;49.930;8.606;2023-05-17T10:56:20;100911.78;;;18.40;40.39
21956;BME280;11142;49.930;8.606;2023-05-17T10:59:20;100912.16;;;20.27;38.79
21956;BME280;11142;49.930;8.606;2023-05-17T11:02:55;100908.97;;;20.33;36.68
21956;BME280;11142;49.930;8.606;2023-05-17T11:12:44;100893.13;;;21.17;39.00
21956;BME280;11142;49.930;8.606;2023-05-17T11:15:36;100896.25;;;24.07;32.99
21956;BME280;11142;49.930;8.606;2023-05-17T11:18:53;100900.88;;;18.24;39.14
21956;BME280;11142;49.930;8.606;2023-05-17T11:21:51;100909.91;;;18.42;39.17
21956;BME280;11142;49.930;8.606;2023-05-17T11:24:36;100901.59;;;18.46;39.43
21956;BME280;11142;49.930;8.606;2023-05-17T11:31:50;100899.59;;;16.64;44.81
21956;BME280;11142;49.930;8.606;2023-05-17T11:34:51;100910.38;;;16.83;46.64
21956;BME280;11142;49.930;8.606;2023-05-17T11:38:11;100908.69;;;16.82;45.50
21956;BME280;11142;49.930;8.606;2023-05-17T11:41:20;100912.13;;;23.91;35.69
21956;BME280;11142;49.930;8.606;2023-05-17T11:44:31;100927.59;;;32.02;24.14
21956;BME280;11142;49.930;8.606;2023-05-17T11:47:15;100921.44;;;26.17;27.47
21956;BME280;11142;49.930;8.606;2023-05-17T11:50:35;100916.97;;;23.46;30.87
21956;BME280;11142;49.930;8.606;2023-05-17T11:53:35;100901.19;;;21.88;33.50
21956;BME280;11142;49.930;8.606;2023-05-17T11:56:22;100897.78;;;20.87;36.20
21956;BME280;11142;49.930;8.606;2023-05-17T11:59:11;100901.88;;;26.70;29.29
21956;BME280;11142;49.930;8.606;2023-05-17T12:01:49;100912.69;;;32.63;22.54
21956;BME280;11142;49.930;8.606;2023-05-17T12:04:25;100906.38;;;30.46;22.74
21956;BME280;11142;49.930;8.606;2023-05-17T12:07:11;100919.38;;;32.22;22.08
21956;BME280;11142;49.930;8.606;2023-05-17T12:09:43;100908.38;;;33.52;20.75
21956;BME280;11142;49.930;8.606;2023-05-17T12:12:14;100897.78;;;31.28;22.19
21956;BME280;11142;49.930;8.606;2023-05-17T12:14:55;100898.56;;;24.75;27.25
21956;BME280;11142;49.930;8.606;2023-05-17T12:17:40;100892.28;;;22.16;32.29
21956;BME280;11142;49.930;8.606;2023-05-17T12:20:26;100882.31;;;22.54;32.95
21956;BME280;11142;49.930;8.606;2023-05-17T12:23:24;100883.88;;;22.64;32.44
21956;BME280;11142;49.930;8.606;2023-05-17T12:26:00;100886.78;;;22.53;32.45
21956;BME280;11142;49.930;8.606;2023-05-17T12:28:53;100878.63;;;23.24;31.21
21956;BME280;11142;49.930;8.606;2023-05-17T12:31:41;100883.16;;;21.84;32.81
21956;BME280;11142;49.930;8.606;2023-05-17T12:34:12;100870.53;;;19.33;38.69
21956;BME280;11142;49.930;8.606;2023-05-17T12:36:54;100875.75;;;19.63;39.31
21956;BME280;11142;49.930;8.606;2023-05-17T12:39:40;100882.66;;;19.15;38.62
21956;BME280;11142;49.930;8.606;2023-05-17T12:42:09;100870.97;;;20.06;37.85
21956;BME280;11142;49.930;8.606;2023-05-17T12:44:39;100883.19;;;24.22;31.11
21956;BME280;11142;49.930;8.606;2023-05-17T12:47:08;100879.09;;;21.44;33.07
21956;BME280;11142;49.930;8.606;2023-05-17T12:49:37;100877.72;;;23.41;30.81
21956;BME280;11142;49.930;8.606;2023-05-17T12:52:08;100875.84;;;29.41;25.29
21956;BME280;11142;49.930;8.606;2023-05-17T12:54:42;100871.84;;;29.71;24.35
21956;BME280;11142;49.930;8.606;2023-05-17T12:57:13;100875.84;;;30.54;21.87
21956;BME280;11142;49.930;8.606;2023-05-17T12:59:47;100862.06;;;24.61;27.22
21956;BME280;11142;49.930;8.606;2023-05-17T13:02:34;100861.34;;;22.35;30.30
21956;BME280;11142;49.930;8.606;2023-05-17T13:05:29;100851.13;;;19.93;35.45
21956;BME280;11142;49.930;8.606;2023-05-17T13:08:33;100859.81;;;18.85;38.58
21956;BME280;11142;49.930;8.606;2023-05-17T13:11:25;100863.06;;;21.55;33.44
21956;BME280;11142;49.930;8.606;2023-05-17T13:14:42;100854.47;;;24.09;28.80
21956;BME280;11142;49.930;8.606;2023-05-17T13:17:41;100862.97;;;26.98;26.50
21956;BME280;11142;49.930;8.606;2023-05-17T13:20:36;100853.53;;;25.98;27.54
21956;BME280;11142;49.930;8.606;2023-05-17T13:23:24;100852.50;;;24.11;27.82
21956;BME280;11142;49.930;8.606;2023-05-17T13:26:47;100857.72;;;29.30;23.90
21956;BME280;11142;49.930;8.606;2023-05-17T13:29:48;100852.97;;;30.32;21.31
21956;BME280;11142;49.930;8.606;2023-05-17T13:32:34;100859.63;;;29.02;23.51
21956;BME280;11142;49.930;8.606;2023-05-17T13:35:40;100852.13;;;25.87;25.76
21956;BME280;11142;49.930;8.606;2023-05-17T13:38:47;100842.47;;;19.13;35.18
21956;BME280;11142;49.930;8.606;2023-05-17T13:41:37;100840.97;;;19.88;34.76
21956;BME280;11142;49.930;8.606;2023-05-17T13:44:28;100834.78;;;21.38;30.90
21956;BME280;11142;49.930;8.606;2023-05-17T13:47:21;100843.28;;;29.24;24.10
21956;BME280;11142;49.930;8.606;2023-05-17T13:50:10;100844.75;;;30.40;22.02
21956;BME280;11142;49.930;8.606;2023-05-17T13:53:10;100840.19;;;26.44;25.43
21956;BME280;11142;49.930;8.606;2023-05-17T13:56:09;100837.28;;;26.53;24.76
21956;BME280;11142;49.930;8.606;2023-05-17T13:58:43;100832.78;;;28.26;23.44
21956;BME280;11142;49.930;8.606;2023-05-17T14:02:06;100827.28;;;26.70;24.34
21956;BME280;11142;49.930;8.606;2023-05-17T14:05:28;100826.97;;;23.78;27.55
21956;BME280;11142;49.930;8.606;2023-05-17T14:08:37;100825.50;;;25.34;27.15
21956;BME280;11142;49.930;8.606;2023-05-17T14:11:47;100821.47;;;23.71;27.68
21956;BME280;11142;49.930;8.606;2023-05-17T14:14:34;100823.50;;;24.18;26.62
21956;BME280;11142;49.930;8.606;2023-05-17T14:17:34;100821.50;;;23.29;28.20
21956;BME280;11142;49.930;8.606;2023-05-17T14:20:34;100819.97;;;28.71;22.85
21956;BME280;11142;49.930;8.606;2023-05-17T14:23:23;100823.66;;;25.34;26.98
21956;BME280;11142;49.930;8.606;2023-05-17T14:26:27;100809.88;;;24.37;27.25
21956;BME280;11142;49.930;8.606;2023-05-17T14:29:40;100824.09;;;26.22;26.00
21956;BME280;11142;49.930;8.606;2023-05-17T14:33:08;100825.00;;;26.96;24.42
21956;BME280;11142;49.930;8.606;2023-05-17T14:36:28;100826.63;;;28.05;23.88
21956;BME280;11142;49.930;8.606;2023-05-17T14:39:56;100822.47;;;26.80;23.89
21956;BME280;11142;49.930;8.606;2023-05-17T14:43:18;100816.50;;;28.49;23.45
21956;BME280;11142;49.930;8.606;2023-05-17T14:46:42;100810.31;;;24.65;26.33
21956;BME280;11142;49.930;8.606;2023-05-17T14:49:52;100805.56;;;25.07;26.63
21956;BME280;11142;49.930;8.606;2023-05-17T14:52:48;100804.09;;;24.17;27.28
21956;BME280;11142;49.930;8.606;2023-05-17T14:55:41;100807.75;;;25.65;25.28
21956;BME280;11142;49.930;8.606;2023-05-17T14:59:27;100811.31;;;27.35;24.06
21956;BME280;11142;49.930;8.606;2023-05-17T15:02:41;100814.78;;;26.70;24.46
21956;BME280;11142;49.930;8.606;2023-05-17T15:06:20;100801.41;;;24.50;27.66
21956;BME280;11142;49.930;8.606;2023-05-17T15:09:37;100807.81;;;22.92;28.33
21956;BME280;11142;49.930;8.606;2023-05-17T15:12:43;100803.03;;;22.96;28.51
21956;BME280;11142;49.930;8.606;2023-05-17T15:15:27;100810.91;;;27.02;24.93
21956;BME280;11142;49.930;8.606;2023-05-17T15:18:44;100809.25;;;26.28;25.56
21956;BME280;11142;49.930;8.606;2023-05-17T15:25:08;100804.47;;;21.60;30.64
21956;BME280;11142;49.930;8.606;2023-05-17T15:28:15;100804.41;;;24.30;28.01
21956;BME280;11142;49.930;8.606;2023-05-17T15:31:23;100810.75;;;22.12;30.80
21956;BME280;11142;49.930;8.606;2023-05-17T15:34:34;100811.38;;;20.98;31.62
21956;BME280;11142;49.930;8.606;2023-05-17T15:37:30;100798.38;;;21.59;31.87
21956;BME280;11142;49.930;8.606;2023-05-17T15:40:18;100786.72;;;23.16;29.69
21956;BME280;11142;49.930;8.606;2023-05-17T15:44:09;100800.78;;;23.17;29.99
21956;BME280;11142;49.930;8.606;2023-05-17T15:46:58;100801.09;;;23.80;28.81
21956;BME280;11142;49.930;8.606;2023-05-17T15:50:12;100802.75;;;23.65;28.43